Michigan Logo

Meridian Charter, MI Single Family Real Estate Listings

124 Total Real Estate Listings * Click on table heading to sort
Date Posted Property Type Style Address Price Living Area Lot Size Price/Sq Ft.
2018-05-19 Single Family 6401 Pine Hollow Drive Meridian Charter, MI 48823 $1,299,000 6,633 sq. ft. 37,897 sq. ft. $196
2018-05-18 Single Family 5599 Wood Valley Drive Meridian Charter, MI 48840 $244,900 2,044 sq. ft. 12,197 sq. ft. $120
2018-05-18 Single Family Contemporary 5563 Strawberry Lane Meridian Charter, MI 48840 $360,000 2,602 sq. ft. 16,988 sq. ft. $138
2018-05-18 Single Family 4072 Shoals Meridian Charter, MI 48864 $349,900 2,764 sq. ft. 13,504 sq. ft. $127
2018-05-17 Single Family 1494 Ivywood Drive Meridian Charter, MI 48864 $375,000 2,922 sq. ft. 23,087 sq. ft. $128
2018-05-17 Single Family Ranch 4141 Shoals Dr Meridian Charter, MI 48864 $274,900 1,428 sq. ft. 13,068 sq. ft. $193
2018-05-16 Single Family Contemporary 5859 Carlton Street Meridian Charter, MI 48840 $579,900 2,875 sq. ft. 4,792 sq. ft. $202
2018-05-16 Single Family Ranch 2723 Tapestry Meridian Charter, MI 48864 $284,900 1,637 sq. ft. 4,792 sq. ft. $174
2018-05-16 Single Family 3811 Meridian Road Meridian Charter, MI 48864 $579,900 4,066 sq. ft. 448,232 sq. ft. $143
2018-05-16 Single Family 2032 Birch Bluff Drive Meridian Charter, MI 48864 $625,999 3,488 sq. ft. 22,216 sq. ft. $179
2018-05-16 Single Family Bungalow; Cape Cod 5664 School Street Meridian Charter, MI 48840 $129,000 1,200 sq. ft. 10,890 sq. ft. $108
2018-05-15 Single Family 4044 Leeward Drive Meridian Charter, MI 48864 $295,000 2,370 sq. ft. 17,860 sq. ft. $124
2018-05-15 Single Family 421 Piper Road Meridian Charter, MI 48840 $324,900 2,420 sq. ft. 87,120 sq. ft. $134
2018-05-15 Single Family Contemporary 6101 Oak Park Trail Meridian Charter, MI 48840 $389,900 2,498 sq. ft. 16,988 sq. ft. $156
2018-05-15 Single Family 3087 Summergate Lane Meridian Charter, MI 48864 $359,900 2,796 sq. ft. 13,504 sq. ft. $129
2018-05-14 Single Family 4045 Van Atta Road Meridian Charter, MI 48864 $615,000 3,242 sq. ft. 100,188 sq. ft. $190
2018-05-14 Single Family 6041 Rutherford Avenue Meridian Charter, MI 48823 $124,900 1,080 sq. ft. 9,148 sq. ft. $116
2018-05-11 Single Family Ranch 1915 Tomahawk Road Meridian Charter, MI 48864 $186,000 1,900 sq. ft. 16,117 sq. ft. $98
2018-05-11 Single Family 5472 Earliglow Lane Meridian Charter, MI 48840 $389,900 2,269 sq. ft. 18,731 sq. ft. $172
2018-05-10 Single Family 6069 Skyline Drive Meridian Charter, MI 48823 $449,000 3,534 sq. ft. 16,988 sq. ft. $127
2018-05-10 Single Family Cape Cod 2216 Iroquois Road Meridian Charter, MI 48864 $94,600 1,090 sq. ft. 20,038 sq. ft. $87
2018-05-10 Single Family 2696 Lake Lansing Road Meridian Charter, MI 48823 $243,500 2,470 sq. ft. 31,363 sq. ft. $99
2018-05-10 Single Family Ranch 5620 White Ash Meridian Charter, MI 48840 $335,000 2,112 sq. ft. 22,651 sq. ft. $159
2018-05-09 Single Family 4624 Nakoma Drive Meridian Charter, MI 48864 $689,900 5,456 sq. ft. 30,056 sq. ft. $126
2018-05-09 Single Family Ranch 5411 Marsh Road Meridian Charter, MI 48840 $239,900 1,490 sq. ft. 18,295 sq. ft. $161
2018-05-09 Single Family 3668 Autumnwood Lane Meridian Charter, MI 48864 $849,900 5,941 sq. ft. 21,344 sq. ft. $143
2018-05-08 Single Family Ranch 1407 Wilshire Road Meridian Charter, MI 48840 $149,900 912 sq. ft. 10,890 sq. ft. $164
2018-05-08 Single Family 3759 Chippendale Circle Meridian Charter, MI 48864 $439,900 3,537 sq. ft. 22,216 sq. ft. $124
2018-05-08 Single Family Cape Cod 980 Haslett Road Meridian Charter, MI 48840 $159,900 2,993 sq. ft. 30,056 sq. ft. $53
2018-05-08 Single Family Raised Ranch 3853 New Salem Avenue Meridian Charter, MI 48864 $232,000 3,054 sq. ft. 14,810 sq. ft. $76
2018-05-08 Single Family 4650 Seneca Drive Meridian Charter, MI 48864 $229,900 1,928 sq. ft. 8,712 sq. ft. $119
2018-05-08 Single Family Ranch 5255 Blue Haven Drive Meridian Charter, MI 48823 $184,000 1,125 sq. ft. 10,890 sq. ft. $164
2018-05-07 Single Family Contemporary 4609 Comanche Drive Meridian Charter, MI 48864 $699,900 3,905 sq. ft. 51,836 sq. ft. $179
2018-05-07 Single Family Contemporary 3615 Beech Tree Lane Meridian Charter, MI 48864 $975,000 4,715 sq. ft. 21,344 sq. ft. $207
2018-05-07 Single Family 3801 Chippendale Circle Meridian Charter, MI 48864 $598,900 3,693 sq. ft. 27,007 sq. ft. $162
2018-05-07 Single Family 6416 Ridgepond Drive Meridian Charter, MI 48823 $665,000 3,362 sq. ft. 19,602 sq. ft. $198
2018-05-07 Single Family 2669 Lupine Drive Meridian Charter, MI 48864 $356,000 2,720 sq. ft. 12,632 sq. ft. $131
2018-05-07 Single Family 2607 Coreopsis Drive Meridian Charter, MI 48864 $405,000 2,596 sq. ft. 18,731 sq. ft. $156
2018-05-07 Single Family 3557 Chippendale Drive Meridian Charter, MI 48864 $469,900 2,597 sq. ft. 13,068 sq. ft. $181
2018-05-07 Single Family Ranch 1614 Jolly Road Meridian Charter, MI 48864 $234,900 2,032 sq. ft. 19,602 sq. ft. $116
2018-05-07 Single Family 1467 Biscayne Way Meridian Charter, MI 48840 $245,000 2,524 sq. ft. 48,787 sq. ft. $97
2018-05-07 Single Family 3693 Taos Circle Meridian Charter, MI 48864 $169,000 1,471 sq. ft. $115
2018-05-07 Single Family 2253 Shawnee Trail Meridian Charter, MI 48864 $179,900 1,824 sq. ft. 15,246 sq. ft. $99
2018-05-07 Single Family Ranch 6079 Beechwood Drive Meridian Charter, MI 48840 $199,000 1,115 sq. ft. 50,094 sq. ft. $178
2018-05-07 Single Family Ranch 5986 Greenman Street Meridian Charter, MI 48840 $124,900 1,040 sq. ft. 5,663 sq. ft. $120
2018-05-06 Single Family 4276 Cornell Road Meridian Charter, MI 48864 $587,500 2,428 sq. ft. 67,082 sq. ft. $242
2018-05-06 Single Family 2499 Robins Way Meridian Charter, MI 48864 $549,800 3,176 sq. ft. 29,621 sq. ft. $173
2018-05-06 Single Family 3911 Breckinridge Drive Meridian Charter, MI 48864 $390,500 3,165 sq. ft. 14,810 sq. ft. $123
2018-05-06 Single Family 3710 Dobie Road Meridian Charter, MI 48864 $214,500 1,815 sq. ft. 29,621 sq. ft. $118
2018-05-06 Single Family Colonial 1130 Bonanza Meridian Charter, MI 48864 $279,900 2,045 sq. ft. 40,075 sq. ft. $137
2018-05-06 Single Family Ranch 5482 Maple Ridge Meridian Charter, MI 48840 $201,900 1,184 sq. ft. 12,197 sq. ft. $171
2018-05-06 Single Family 6013 Rutherford Avenue Meridian Charter, MI 48823 $134,900 1,456 sq. ft. 12,632 sq. ft. $93
2018-05-06 Single Family Ranch 5013 Algonquin Way Meridian Charter, MI 48864 $144,900 1,103 sq. ft. 22,216 sq. ft. $131
2018-05-06 Single Family Manufactured With Land; Ranch 5980 Cypress Meridian Charter, MI 48840 $110,000 1,248 sq. ft. 9,148 sq. ft. $88
2018-04-26 Single Family Ranch 6310 Island Lake Drive Meridian Charter, MI 48823 $749,900 3,323 sq. ft. 17,424 sq. ft. $226
2018-04-25 Single Family 1250 Sweetwood Drive Meridian Charter, MI 48864 $329,000 2,360 sq. ft. 16,553 sq. ft. $139
2018-04-25 Single Family Ranch 4564 Herron Meridian Charter, MI 48864 $359,900 1,606 sq. ft. 44,431 sq. ft. $224
2018-04-24 Single Family Ranch 5132 Park Lake Road Meridian Charter, MI 48823 $188,000 1,581 sq. ft. 20,038 sq. ft. $119
2018-04-19 Single Family 189 Newman Road Meridian Charter, MI 48864 $349,900 1,980 sq. ft. 105,415 sq. ft. $177
2018-04-19 Single Family Contemporary 4809 Van Atta Road Meridian Charter, MI 48864 $284,900 2,043 sq. ft. 292,723 sq. ft. $139
2018-04-19 Single Family Ranch 4520 Meridian Road Meridian Charter, MI 48895 $120,000 854 sq. ft. 12,632 sq. ft. $141
2018-04-17 Single Family 6431 Woodcliffe Lane Meridian Charter, MI 48823 $579,900 3,681 sq. ft. 19,602 sq. ft. $158
2018-04-16 Single Family Cape Cod 3995 Sun Rapids Drive Meridian Charter, MI 48864 $229,900 2,008 sq. ft. 21,780 sq. ft. $114
2018-04-16 Single Family 1201 Buckingham Road Meridian Charter, MI 48840 $214,900 1,854 sq. ft. 10,890 sq. ft. $116
2018-04-16 Single Family 4212 Shoals Drive Meridian Charter, MI 48864 $299,000 2,228 sq. ft. 14,375 sq. ft. $134
2018-04-12 Single Family 1095 Woodwind Trail Meridian Charter, MI 48840 $369,900 2,040 sq. ft. 8,712 sq. ft. $181
2018-04-12 Single Family 4568 Hagadorn Meridian Charter, MI 48823 $260,000 2,068 sq. ft. 20,038 sq. ft. $126
2018-04-10 Single Family Ranch 2524 Kevern Way Meridian Charter, MI 48864 $399,900 2,432 sq. ft. 6,534 sq. ft. $164
2018-04-09 Single Family 3794 Chippendale Circle Meridian Charter, MI 48864 $459,900 3,274 sq. ft. 20,038 sq. ft. $140
2018-04-06 Single Family 175 Victorian Hills Drive Meridian Charter, MI 48864 $1,189,900 5,070 sq. ft. 364,162 sq. ft. $235
2018-04-06 Single Family 3876 Crooked Creek Drive Meridian Charter, MI 48864 $434,900 3,216 sq. ft. 15,682 sq. ft. $135
2018-04-04 Single Family Ranch 6090 Sleepy Hollow Lane Meridian Charter, MI 48823 $539,900 2,096 sq. ft. 17,424 sq. ft. $258
2018-04-04 Single Family Colonial 2103 Isaac Lane Meridian Charter, MI 48823 $415,000 2,354 sq. ft. 17,860 sq. ft. $176
2018-04-03 Single Family 888 Jolly Road Meridian Charter, MI 48864 $229,900 2,080 sq. ft. 192,971 sq. ft. $111
2018-04-03 Single Family Ranch 6181 Rutherford Avenue Meridian Charter, MI 48823 $125,000 1,422 sq. ft. 19,166 sq. ft. $88
2018-04-02 Single Family 2601 Sophiea Parkway Meridian Charter, MI 48864 $500,000 2,692 sq. ft. 10,454 sq. ft. $186
2018-04-02 Single Family 3597 Otsego Drive Meridian Charter, MI 48864 $886,000 3,293 sq. ft. 31,799 sq. ft. $269
2018-04-02 Single Family Ranch 3309 Biber Street Meridian Charter, MI 48823 $99,900 864 sq. ft. 11,326 sq. ft. $116
2018-03-30 Single Family 6397 Ridgepond Place Meridian Charter, MI 48823 $700,000 3,541 sq. ft. 25,700 sq. ft. $198
2018-03-27 Single Family Cape Cod 5604 Marsh Road Meridian Charter, MI 48840 $144,900 1,699 sq. ft. 26,572 sq. ft. $85
2018-03-27 Single Family 3518 Hyacinth Street Meridian Charter, MI 48864 $339,900 2,378 sq. ft. 9,583 sq. ft. $143
2018-03-21 Single Family 4753 Arapaho Trail Meridian Charter, MI 48864 $349,900 3,221 sq. ft. 24,394 sq. ft. $109
2018-03-20 Single Family 2020 Tamarack Drive Meridian Charter, MI 48864 $419,000 2,786 sq. ft. 13,939 sq. ft. $150
2018-03-16 Single Family 6044 Marietta Way Meridian Charter, MI 48823 $409,900 2,408 sq. ft. 14,375 sq. ft. $170
2018-03-15 Single Family 4270 Conifer Circle Meridian Charter, MI 48864 $284,500 2,071 sq. ft. 12,197 sq. ft. $137
2018-03-14 Single Family Contemporary 4372 Aztec Way Meridian Charter, MI 48864 $399,900 2,533 sq. ft. 37,026 sq. ft. $158
2018-03-12 Single Family 4280 Farm Meadows Court Meridian Charter, MI 48864 $375,000 3,031 sq. ft. 13,939 sq. ft. $124
2018-03-10 Single Family 1559 Belvedere Avenue Meridian Charter, MI 48864 $359,900 2,176 sq. ft. 9,583 sq. ft. $165
2018-03-09 Single Family Contemporary 1160 Fox Chase Meridian Charter, MI 48864 $515,000 3,303 sq. ft. 133,294 sq. ft. $156
2018-03-09 Single Family Cape Cod 3189 Birch Row Drive Meridian Charter, MI 48823 $134,900 1,622 sq. ft. 8,712 sq. ft. $83
2018-03-08 Single Family Contemporary 4455 Seneca Meridian Charter, MI 48864 $355,800 3,047 sq. ft. 12,632 sq. ft. $117
2018-03-05 Single Family 6371 Island Lake Drive Meridian Charter, MI 48823 $559,900 3,766 sq. ft. 27,443 sq. ft. $149
2018-02-27 Single Family 6069 Sleepy Hollow Lane Meridian Charter, MI 48823 $659,900 3,368 sq. ft. 23,522 sq. ft. $196
2018-02-15 Single Family 4557 Comanche Drive Meridian Charter, MI 48864 $499,900 3,660 sq. ft. 18,295 sq. ft. $137
2018-02-14 Single Family 2500 Overglen Court Meridian Charter, MI 48823 $1,399,000 6,692 sq. ft. 25,700 sq. ft. $209
2018-02-08 Single Family 2370 Pine Hollow Drive Meridian Charter, MI 48823 $639,900 3,677 sq. ft. 19,166 sq. ft. $174
2018-02-05 Single Family 6422 Oakencliffe Lane Meridian Charter, MI 48823 $759,000 4,668 sq. ft. 21,344 sq. ft. $163
2018-02-02 Single Family Ranch 5550 Marsh Road Meridian Charter, MI 48840 $200,000 1,344 sq. ft. 35,284 sq. ft. $149
2018-01-29 Single Family Ranch 6046 Dawn Avenue Meridian Charter, MI 48823 $229,900 1,668 sq. ft. 14,375 sq. ft. $138
2018-01-26 Single Family Contemporary 1360 Hickory Island Meridian Charter, MI 48840 $899,000 4,456 sq. ft. 10,019 sq. ft. $202
2018-01-25 Single Family Ranch 140 Forest Trail Drive Meridian Charter, MI 48864 $350,900 1,800 sq. ft. 13,504 sq. ft. $195
2018-01-25 Single Family 139 Forest Trail Drive Meridian Charter, MI 48864 $360,900 2,520 sq. ft. 13,068 sq. ft. $143
2018-01-24 Single Family 141 Forest Trail Drive Meridian Charter, MI 48864 $304,900 1,789 sq. ft. 9,583 sq. ft. $170
2018-01-24 Single Family 142 Forest Trail Drive Meridian Charter, MI 48864 $320,900 1,921 sq. ft. 10,454 sq. ft. $167
2018-01-24 Single Family 158 Forest Trail Drive Meridian Charter, MI 48864 $299,900 1,878 sq. ft. 13,504 sq. ft. $160
2018-01-24 Single Family 137 Forest Trail Drive Meridian Charter, MI 48864 $296,900 1,824 sq. ft. 17,424 sq. ft. $163
2018-01-22 Single Family 6440 Pine Hollow Drive Meridian Charter, MI 48823 $774,900 5,745 sq. ft. 18,731 sq. ft. $135
2018-01-16 Single Family 4863 Grandview Avenue Meridian Charter, MI 48864 $179,900 1,120 sq. ft. 17,424 sq. ft. $161
2018-01-16 Single Family 3520 Breezy Point Drive Meridian Charter, MI 48864 $469,900 3,192 sq. ft. 34,412 sq. ft. $147
2018-01-03 Single Family 6414 Woodcliffe Lane Meridian Charter, MI 48823 $699,950 4,011 sq. ft. 20,473 sq. ft. $175
2018-01-03 Single Family Contemporary 4418 Calgary Boulevard Meridian Charter, MI 48864 $324,900 3,904 sq. ft. 14,375 sq. ft. $83
2018-01-03 Single Family Ranch 1678 Lake Lansing Road Meridian Charter, MI 48840 $69,900 740 sq. ft. 4,356 sq. ft. $94
2017-12-29 Single Family 200 Victorian Hills Drive Meridian Charter, MI 48864 $684,100 3,779 sq. ft. 117,612 sq. ft. $181
2017-12-12 Single Family Contemporary 4920 Country Drive Meridian Charter, MI 48864 $409,900 2,907 sq. ft. 267,023 sq. ft. $141
2017-12-10 Single Family 2453 Pine Hollow Drive Meridian Charter, MI 48823 $825,000 4,433 sq. ft. 27,007 sq. ft. $186
2017-12-10 Single Family Ranch 2016 Belwood Drive Meridian Charter, MI 48864 $529,900 2,419 sq. ft. 22,651 sq. ft. $219
2017-12-10 Single Family Ranch 5552 Silverleaf Court Meridian Charter, MI 48840 $359,900 2,360 sq. ft. 12,197 sq. ft. $152
2017-12-10 Single Family 138 Forest Trail Drive Meridian Charter, MI 48864 $340,900 2,519 sq. ft. 13,068 sq. ft. $135
2017-12-10 Single Family 6269 Green Road Meridian Charter, MI 48840 $115,000 3,148 sq. ft. 225,205 sq. ft. $37
2017-12-10 Single Family 5205 Whitetail Circle Meridian Charter, MI 48864 $589,900 3,496 sq. ft. 41,382 sq. ft. $169
2017-12-10 Single Family 6375 Reynolds Meridian Charter, MI 48840 $649,900 4,348 sq. ft. 13,504 sq. ft. $149
2017-12-10 Single Family 5574 White Ash Meridian Charter, MI 48840 $429,900 3,217 sq. ft. 23,522 sq. ft. $134
2017-12-10 Single Family 4145 Benca Circle Meridian Charter, MI 48864 $458,000 2,852 sq. ft. 7,405 sq. ft. $161
2017-12-10 Single Family 2253 Hamilton Road Meridian Charter, MI 48864 $235,000 2,630 sq. ft. 31,799 sq. ft. $89